Terminal Aerodrome Forecast
Issued by NWS Sterling, VA

Home | Current Version | Previous Version | Text Only | Print | Product List | Glossary On
Versions: 1 2 3 4 5 6 7 8 9 10 11 12 13 14 15 16 17 18 19 20 21 22 23 24 25 26 27
000
FTUS41 KLWX 181100
TAFBWI
TAF
KBWI 181126Z 1812/1918 29013G20KT P6SM BKN050
     FM181400 30012G20KT P6SM SCT050
     FM182300 30008KT P6SM SCT110
     FM190500 29008KT P6SM BKN110
     FM190800 29008KT P6SM SCT110=

USA.gov is the U.S. government's official web portal to all federal, state and local government web resources and services.